Terminal Aerodrome Forecast
Issued by NWS Blacksburg, VA

Home | Current Version | Previous Version | Text Only | Print | Product List | Glossary On
Versions: 1 2 3 4 5 6 7 8 9 10 11 12 13 14 15 16 17 18 19 20 21 22 23 24 25 26 27 28 29 30 31 32 33 34 35 36 37 38 39 40 41 42 43 44 45 46 47 48 49 50
404
FTUS41 KRNK 171127
TAFBLF
TAF
KBLF 171127Z 1712/1812 20005KT P6SM -SHRA SCT009 OVC080
      WS020/23035KT
      TEMPO 1712/1714 5SM SHRA BR OVC009
     FM171400 20006KT 6SM -SHRA OVC030
     FM171700 22010G26KT P6SM -SHRA BKN045
     FM180100 25010G27KT P6SM -SHRA OVC025
     FM180600 29009KT P6SM VCSH OVC008=

USA.gov is the U.S. government's official web portal to all federal, state and local government web resources and services.